createdAt,value
2022-12-17T00:01:05.646Z,-4.50
2022-12-17T00:03:52.062Z,-4.60
2022-12-17T00:06:38.323Z,-4.60
2022-12-17T00:09:24.201Z,-4.30
2022-12-17T00:12:10.285Z,-4.10
2022-12-17T00:14:55.926Z,-4.10
2022-12-17T00:17:43.263Z,-4.10
2022-12-17T00:20:29.457Z,-4.10
2022-12-17T00:23:18.922Z,-4.00
2022-12-17T00:26:09.905Z,-4.00
2022-12-17T00:28:55.732Z,-4.00
2022-12-17T00:31:42.089Z,-4.10
2022-12-17T00:34:29.215Z,-4.10
2022-12-17T00:37:15.401Z,-4.10
2022-12-17T00:40:01.136Z,-4.20
2022-12-17T00:42:47.015Z,-4.30
2022-12-17T00:45:33.009Z,-4.20
2022-12-17T00:48:18.832Z,-4.10
2022-12-17T00:51:06.229Z,-4.20
2022-12-17T00:53:51.790Z,-4.30
2022-12-17T00:56:37.416Z,-4.40
2022-12-17T00:59:37.730Z,-4.60
2022-12-17T01:02:23.693Z,-4.70
2022-12-17T01:05:09.741Z,-4.80
2022-12-17T01:07:57.206Z,-4.60
2022-12-17T01:10:43.177Z,-4.50
2022-12-17T01:13:31.573Z,-4.30
2022-12-17T01:16:21.987Z,-4.40
2022-12-17T01:19:08.036Z,-4.40
2022-12-17T01:21:53.835Z,-4.40
2022-12-17T01:24:43.783Z,-4.40
2022-12-17T01:27:30.270Z,-4.40
2022-12-17T01:30:15.701Z,-4.40
2022-12-17T01:33:01.555Z,-4.40
2022-12-17T01:35:47.722Z,-4.40
2022-12-17T01:38:34.741Z,-4.40
2022-12-17T01:41:23.016Z,-4.50
2022-12-17T01:44:08.742Z,-4.50
2022-12-17T01:46:57.921Z,-4.50
2022-12-17T01:49:45.316Z,-4.60
2022-12-17T01:52:33.031Z,-4.40
2022-12-17T01:55:30.668Z,-4.50
2022-12-17T01:58:18.014Z,-4.60
2022-12-17T02:01:03.670Z,-4.70
2022-12-17T02:03:49.689Z,-4.80
2022-12-17T02:06:43.984Z,-4.90
2022-12-17T02:09:36.321Z,-5.00
2022-12-17T02:12:31.680Z,-5.00
2022-12-17T02:15:24.439Z,-4.90
2022-12-17T02:18:15.408Z,-4.60
2022-12-17T02:21:04.632Z,-4.50
2022-12-17T02:23:57.452Z,-4.10
2022-12-17T02:26:55.493Z,-4.20
2022-12-17T02:29:43.271Z,-4.50
2022-12-17T02:32:31.184Z,-4.60
2022-12-17T02:35:19.311Z,-4.60
2022-12-17T02:38:06.184Z,-4.60
2022-12-17T02:40:53.893Z,-4.70
2022-12-17T02:43:45.310Z,-4.70
2022-12-17T02:46:31.904Z,-4.70
2022-12-17T02:49:17.791Z,-4.60
2022-12-17T02:52:04.127Z,-4.50
2022-12-17T02:54:51.129Z,-4.20
2022-12-17T02:57:41.018Z,-3.90
2022-12-17T03:00:32.171Z,-3.80
2022-12-17T03:03:17.915Z,-3.60
2022-12-17T03:06:03.489Z,-3.50
2022-12-17T03:08:49.027Z,-3.50
2022-12-17T03:11:34.933Z,-3.50
2022-12-17T03:14:20.828Z,-3.40
2022-12-17T03:17:08.311Z,-3.40
2022-12-17T03:19:54.058Z,-3.60
2022-12-17T03:22:39.934Z,-3.60
2022-12-17T03:25:26.924Z,-3.80
2022-12-17T03:28:12.341Z,-3.90
2022-12-17T03:30:58.219Z,-4.10
2022-12-17T03:33:45.581Z,-4.20
2022-12-17T03:36:31.414Z,-4.40
2022-12-17T03:39:17.449Z,-4.60
2022-12-17T03:42:04.282Z,-4.60
2022-12-17T03:44:49.775Z,-4.50
2022-12-17T03:47:35.944Z,-4.50
2022-12-17T03:50:24.093Z,-4.60
2022-12-17T03:53:09.992Z,-4.70
2022-12-17T03:55:55.904Z,-4.70
2022-12-17T03:58:41.710Z,-4.80
2022-12-17T04:01:27.656Z,-4.80
2022-12-17T04:04:13.586Z,-4.90
2022-12-17T04:07:01.154Z,-4.80
2022-12-17T04:09:47.006Z,-4.60
2022-12-17T04:12:35.472Z,-4.40
2022-12-17T04:15:21.436Z,-4.30
2022-12-17T04:18:07.725Z,-4.20
2022-12-17T04:20:53.634Z,-4.10
2022-12-17T04:23:49.429Z,-4.00
2022-12-17T04:26:35.063Z,-3.90
2022-12-17T04:29:20.826Z,-3.80
2022-12-17T04:32:07.047Z,-3.80
2022-12-17T04:34:52.814Z,-3.70
2022-12-17T04:37:38.569Z,-3.60
2022-12-17T04:40:28.029Z,-3.40
2022-12-17T04:43:13.573Z,-3.40
2022-12-17T04:45:59.583Z,-3.50
2022-12-17T04:48:45.187Z,-3.60
2022-12-17T04:51:30.985Z,-3.70
2022-12-17T04:54:16.903Z,-3.80
2022-12-17T04:57:04.232Z,-3.80
2022-12-17T04:59:49.939Z,-3.80
2022-12-17T05:02:43.041Z,-3.60
2022-12-17T05:05:29.361Z,-3.50
2022-12-17T05:08:15.738Z,-3.40
2022-12-17T05:11:04.317Z,-3.50
2022-12-17T05:13:51.559Z,-3.40
2022-12-17T05:16:37.381Z,-3.40
2022-12-17T05:19:23.090Z,-3.50
2022-12-17T05:22:08.786Z,-3.60
2022-12-17T05:24:54.283Z,-3.70
2022-12-17T05:27:40.274Z,-3.70
2022-12-17T05:30:28.456Z,-3.70
2022-12-17T05:33:17.725Z,-3.60
2022-12-17T05:36:03.967Z,-3.60
2022-12-17T05:38:49.907Z,-3.40
2022-12-17T05:41:35.490Z,-3.40
2022-12-17T05:44:21.449Z,-3.50
2022-12-17T05:47:08.385Z,-3.60
2022-12-17T05:49:53.902Z,-3.70
2022-12-17T05:52:42.565Z,-3.80
2022-12-17T05:55:28.164Z,-3.80
2022-12-17T05:58:20.678Z,-3.70
2022-12-17T06:01:06.607Z,-3.70
2022-12-17T06:03:54.118Z,-3.80
2022-12-17T06:06:39.892Z,-3.80
2022-12-17T06:09:26.605Z,-3.80
2022-12-17T06:12:12.316Z,-3.80
2022-12-17T06:14:59.166Z,-3.90
2022-12-17T06:17:44.978Z,-4.00
2022-12-17T06:20:32.068Z,-4.00
2022-12-17T06:23:19.232Z,-4.00
2022-12-17T06:26:05.203Z,-3.90
2022-12-17T06:28:51.065Z,-3.80
2022-12-17T06:31:37.137Z,-3.70
2022-12-17T06:34:22.658Z,-3.80
2022-12-17T06:37:09.993Z,-3.80
2022-12-17T06:39:55.801Z,-3.80
2022-12-17T06:42:41.735Z,-3.90
2022-12-17T06:45:27.849Z,-3.90
2022-12-17T06:48:20.635Z,-3.90
2022-12-17T06:51:06.614Z,-3.90
2022-12-17T06:53:54.038Z,-4.00
2022-12-17T06:56:42.774Z,-4.20
2022-12-17T06:59:29.053Z,-4.50
2022-12-17T07:02:14.628Z,-4.60
2022-12-17T07:05:00.287Z,-4.70
2022-12-17T07:07:46.187Z,-4.70
2022-12-17T07:10:33.647Z,-4.70
2022-12-17T07:13:23.591Z,-4.50
2022-12-17T07:16:10.384Z,-4.30
2022-12-17T07:18:56.791Z,-4.30
2022-12-17T07:21:43.284Z,-4.40
2022-12-17T07:24:29.130Z,-4.40
2022-12-17T07:27:16.272Z,-4.50
2022-12-17T07:30:13.621Z,-4.50
2022-12-17T07:32:59.414Z,-4.40
2022-12-17T07:35:45.145Z,-4.20
2022-12-17T07:38:36.184Z,-4.20
2022-12-17T07:41:21.730Z,-4.20
2022-12-17T07:44:08.832Z,-4.30
2022-12-17T07:46:54.500Z,-4.50
2022-12-17T07:49:39.962Z,-4.70
2022-12-17T07:52:25.482Z,-4.80
2022-12-17T07:55:14.285Z,-4.80
2022-12-17T07:58:04.322Z,-4.70
2022-12-17T08:00:51.962Z,-4.60
2022-12-17T08:03:37.967Z,-4.60
2022-12-17T08:06:24.370Z,-4.70
2022-12-17T08:09:10.039Z,-4.80
2022-12-17T08:12:04.335Z,-4.80
2022-12-17T08:14:49.863Z,-4.70
2022-12-17T08:17:37.080Z,-4.60
2022-12-17T08:20:23.786Z,-4.50
2022-12-17T08:23:14.912Z,-4.30
2022-12-17T08:26:00.539Z,-4.10
2022-12-17T08:28:50.882Z,-3.80
2022-12-17T08:31:38.002Z,-3.50
2022-12-17T08:34:25.511Z,-3.40
2022-12-17T08:37:11.834Z,-3.20
2022-12-17T08:39:57.806Z,-3.00
2022-12-17T08:42:43.298Z,-2.90
2022-12-17T08:45:29.930Z,-2.80
2022-12-17T08:48:23.484Z,-2.70
2022-12-17T08:51:10.753Z,-2.60
2022-12-17T08:53:56.764Z,-2.40
2022-12-17T08:56:42.921Z,-2.40
2022-12-17T08:59:28.740Z,-2.40
2022-12-17T09:02:14.429Z,-2.50
2022-12-17T09:05:00.269Z,-2.40
2022-12-17T09:07:47.699Z,-2.40
2022-12-17T09:10:44.923Z,-2.40
2022-12-17T09:13:30.648Z,-2.30
2022-12-17T09:16:17.054Z,-2.20
2022-12-17T09:19:02.890Z,-2.10
2022-12-17T09:21:49.430Z,-2.00
2022-12-17T09:24:36.547Z,-1.90
2022-12-17T09:27:22.657Z,-1.80
2022-12-17T09:30:08.443Z,-1.60
2022-12-17T09:32:54.188Z,-1.40
2022-12-17T09:35:40.232Z,-1.20
2022-12-17T09:38:26.000Z,-0.90
2022-12-17T09:41:13.340Z,-0.70
2022-12-17T09:44:05.385Z,-0.50
2022-12-17T09:46:58.653Z,-0.30
2022-12-17T09:49:46.898Z,-0.20
2022-12-17T09:52:40.077Z,0.00
2022-12-17T09:55:37.168Z,0.10
2022-12-17T09:58:25.133Z,0.20
2022-12-17T10:01:12.536Z,0.30
2022-12-17T10:04:02.227Z,0.40
2022-12-17T10:06:48.944Z,0.50
2022-12-17T10:09:37.439Z,0.60
2022-12-17T10:12:33.162Z,0.70
2022-12-17T10:15:20.514Z,0.80
2022-12-17T10:18:06.314Z,0.80
2022-12-17T10:20:55.151Z,0.90
2022-12-17T10:23:45.055Z,1.10
2022-12-17T10:26:36.325Z,1.10
2022-12-17T10:29:24.551Z,1.10
2022-12-17T10:32:13.703Z,1.10
2022-12-17T10:35:05.726Z,1.20
2022-12-17T10:37:54.404Z,1.30
2022-12-17T10:40:45.068Z,1.50
2022-12-17T10:43:49.450Z,1.50
2022-12-17T10:46:42.925Z,1.60
2022-12-17T10:49:35.631Z,1.60
2022-12-17T10:52:24.524Z,1.70
2022-12-17T10:55:20.395Z,1.70
2022-12-17T10:58:08.836Z,1.70
2022-12-17T11:00:57.662Z,1.80
2022-12-17T11:03:47.562Z,1.80
2022-12-17T11:06:42.749Z,1.80
2022-12-17T11:09:36.943Z,1.90
2022-12-17T11:12:30.481Z,2.00
2022-12-17T11:15:22.926Z,2.20
2022-12-17T11:18:11.688Z,2.20
2022-12-17T11:21:06.099Z,2.20
2022-12-17T11:23:56.464Z,2.20
2022-12-17T11:26:45.740Z,2.30
2022-12-17T11:29:32.645Z,2.50
2022-12-17T11:32:42.401Z,2.60
2022-12-17T11:35:36.391Z,2.50
2022-12-17T11:38:33.989Z,2.60
2022-12-17T11:41:34.435Z,2.70
2022-12-17T11:44:30.387Z,2.90
2022-12-17T11:47:21.469Z,3.10
2022-12-17T11:50:25.385Z,3.10
2022-12-17T11:53:25.910Z,3.10
2022-12-17T11:56:21.105Z,3.20
2022-12-17T11:59:11.524Z,3.30
2022-12-17T12:02:06.958Z,3.40
2022-12-17T12:05:12.011Z,3.40
2022-12-17T12:08:05.224Z,3.40
2022-12-17T12:10:59.188Z,3.50
2022-12-17T12:13:54.850Z,3.70
2022-12-17T12:16:49.022Z,3.70
2022-12-17T12:19:40.373Z,3.70
2022-12-17T12:22:33.980Z,3.70
2022-12-17T12:25:33.715Z,3.70
2022-12-17T12:28:28.818Z,3.70
2022-12-17T12:31:22.096Z,3.90
2022-12-17T12:34:14.021Z,3.90
2022-12-17T12:37:02.164Z,3.80
2022-12-17T12:39:55.294Z,3.80
2022-12-17T12:42:46.345Z,3.90
2022-12-17T12:45:57.027Z,4.10
2022-12-17T12:48:52.750Z,4.20
2022-12-17T12:51:43.085Z,4.40
2022-12-17T12:54:49.424Z,4.30
2022-12-17T12:57:50.579Z,4.20
2022-12-17T13:00:47.104Z,4.10
2022-12-17T13:03:44.776Z,4.20
2022-12-17T13:06:14.832Z,4.20
2022-12-17T13:08:44.573Z,4.30
2022-12-17T13:11:30.191Z,4.30
2022-12-17T13:14:06.096Z,4.20
2022-12-17T13:16:54.424Z,4.20
2022-12-17T13:19:35.623Z,4.10
2022-12-17T13:22:28.508Z,4.10
2022-12-17T13:25:16.329Z,4.10
2022-12-17T13:27:45.380Z,4.10
2022-12-17T13:30:22.223Z,4.20
2022-12-17T13:33:03.343Z,4.00
2022-12-17T13:35:40.300Z,4.00
2022-12-17T13:38:17.659Z,3.80
2022-12-17T13:40:56.167Z,3.80
2022-12-17T13:43:28.607Z,3.60
2022-12-17T13:45:57.610Z,3.40
2022-12-17T13:48:28.981Z,3.30
2022-12-17T13:50:59.830Z,3.20
2022-12-17T13:53:28.959Z,3.30
2022-12-17T13:55:59.712Z,3.40
2022-12-17T13:58:30.455Z,3.40
2022-12-17T14:01:10.930Z,3.50
2022-12-17T14:06:33.467Z,3.60
2022-12-17T14:09:02.372Z,3.50
2022-12-17T14:11:51.145Z,3.40
2022-12-17T14:14:28.000Z,3.30
2022-12-17T14:16:57.078Z,3.20
2022-12-17T14:19:26.351Z,2.90
2022-12-17T14:21:55.447Z,2.70
2022-12-17T14:24:27.347Z,2.60
2022-12-17T14:26:59.235Z,2.50
2022-12-17T14:29:30.640Z,2.50
2022-12-17T14:32:01.788Z,2.50
2022-12-17T14:34:41.057Z,2.40
2022-12-17T14:37:19.916Z,2.30
2022-12-17T14:39:49.723Z,2.10
2022-12-17T14:42:30.440Z,1.90
2022-12-17T14:45:00.743Z,1.80
2022-12-17T14:47:30.890Z,1.70
2022-12-17T14:50:02.526Z,1.60
2022-12-17T14:52:44.038Z,1.40
2022-12-17T14:55:28.240Z,1.30
2022-12-17T14:58:15.519Z,1.10
2022-12-17T15:00:45.916Z,1.00
2022-12-17T15:03:21.612Z,0.80
2022-12-17T15:05:54.414Z,0.50
2022-12-17T15:08:23.146Z,0.40
2022-12-17T15:10:51.839Z,0.30
2022-12-17T15:13:21.935Z,0.20
2022-12-17T15:15:50.221Z,0.10
2022-12-17T15:18:18.654Z,0.00
2022-12-17T15:20:47.186Z,-0.10
2022-12-17T15:23:17.831Z,-0.20
2022-12-17T15:25:47.213Z,-0.20
2022-12-17T15:28:18.479Z,-0.20
2022-12-17T15:30:49.140Z,-0.40
2022-12-17T15:33:18.004Z,-0.50
2022-12-17T15:35:46.404Z,-0.70
2022-12-17T15:38:14.829Z,-0.80
2022-12-17T15:40:43.204Z,-0.80
2022-12-17T15:43:11.147Z,-1.00
2022-12-17T15:45:40.439Z,-1.00
2022-12-17T15:48:11.004Z,-1.10
2022-12-17T15:50:39.568Z,-1.20
2022-12-17T15:53:08.050Z,-1.40
2022-12-17T15:55:36.842Z,-1.50
2022-12-17T15:58:06.031Z,-1.60
2022-12-17T16:00:34.735Z,-1.70
2022-12-17T16:03:03.192Z,-1.70
2022-12-17T16:05:32.936Z,-1.80
2022-12-17T16:08:02.701Z,-1.90
2022-12-17T16:10:31.768Z,-2.00
2022-12-17T16:13:00.125Z,-2.20
2022-12-17T16:15:28.513Z,-2.30
2022-12-17T16:17:56.931Z,-2.30
2022-12-17T16:20:26.207Z,-2.30
2022-12-17T16:22:55.974Z,-2.20
2022-12-17T16:25:24.324Z,-2.10
2022-12-17T16:27:53.092Z,-2.10
2022-12-17T16:30:21.479Z,-2.10
2022-12-17T16:32:49.884Z,-2.10
2022-12-17T16:35:18.316Z,-2.10
2022-12-17T16:37:47.075Z,-2.10
2022-12-17T16:40:16.841Z,-2.10
2022-12-17T16:42:45.200Z,-2.10
2022-12-17T16:45:13.628Z,-2.10
2022-12-17T16:47:41.956Z,-2.10
2022-12-17T16:50:10.287Z,-2.10
2022-12-17T16:52:38.615Z,-2.10
2022-12-17T16:55:07.533Z,-2.20
2022-12-17T16:57:37.292Z,-2.20
2022-12-17T17:00:06.299Z,-2.10
2022-12-17T17:02:34.875Z,-2.10
2022-12-17T17:05:03.446Z,-2.10
2022-12-17T17:07:31.844Z,-2.20
2022-12-17T17:10:00.178Z,-2.30
2022-12-17T17:12:28.538Z,-2.30
2022-12-17T17:14:58.313Z,-2.40
2022-12-17T17:17:55.770Z,-2.40
2022-12-17T17:20:15.734Z,-2.40
2022-12-17T17:22:45.482Z,-2.40
2022-12-17T17:25:13.872Z,-2.40
2022-12-17T17:27:42.287Z,-2.30
2022-12-17T17:30:13.525Z,-2.30
2022-12-17T17:32:41.905Z,-2.30
2022-12-17T17:35:10.583Z,-2.30
2022-12-17T17:37:39.671Z,-2.30
2022-12-17T17:40:09.333Z,-2.30
2022-12-17T17:42:37.741Z,-2.40
2022-12-17T17:45:08.801Z,-2.30
2022-12-17T17:47:38.515Z,-2.20
2022-12-17T17:50:07.835Z,-2.20
2022-12-17T17:52:36.238Z,-2.20
2022-12-17T17:55:05.027Z,-2.30
2022-12-17T17:57:33.393Z,-2.40
2022-12-17T18:00:02.612Z,-2.60
2022-12-17T18:02:31.541Z,-2.70
2022-12-17T18:05:01.396Z,-2.80
2022-12-17T18:07:29.826Z,-2.60
2022-12-17T18:09:59.744Z,-2.50
2022-12-17T18:12:45.517Z,-2.50
2022-12-17T18:15:15.737Z,-2.70
2022-12-17T18:17:46.385Z,-2.60
2022-12-17T18:20:16.388Z,-2.70
2022-12-17T18:22:46.466Z,-2.80
2022-12-17T18:25:15.599Z,-2.60
2022-12-17T18:27:44.053Z,-2.60
2022-12-17T18:30:13.763Z,-2.40
2022-12-17T18:32:42.128Z,-2.30
2022-12-17T18:35:11.096Z,-2.30
2022-12-17T18:37:41.295Z,-2.40
2022-12-17T18:40:10.648Z,-2.30
2022-12-17T18:42:56.209Z,-2.30
2022-12-17T18:45:24.561Z,-2.20
2022-12-17T18:47:53.293Z,-2.10
2022-12-17T18:50:21.681Z,-2.10
2022-12-17T18:52:51.380Z,-2.30
2022-12-17T18:55:20.031Z,-2.30
2022-12-17T18:57:48.374Z,-2.40
2022-12-17T19:00:17.166Z,-2.40
2022-12-17T19:02:45.643Z,-2.50
2022-12-17T19:05:14.166Z,-2.50
2022-12-17T19:07:42.508Z,-2.60
2022-12-17T19:10:12.531Z,-2.70
2022-12-17T19:12:40.914Z,-2.80
2022-12-17T19:15:10.263Z,-2.80
2022-12-17T19:17:38.821Z,-2.90
2022-12-17T19:20:08.205Z,-3.00
2022-12-17T19:22:36.552Z,-3.20
2022-12-17T19:25:06.080Z,-3.30
2022-12-17T19:27:35.770Z,-3.40
2022-12-17T19:30:04.420Z,-3.50
2022-12-17T19:32:33.847Z,-3.60
2022-12-17T19:35:02.288Z,-3.60
2022-12-17T19:37:30.901Z,-3.60
2022-12-17T19:39:59.240Z,-3.70
2022-12-17T19:42:33.476Z,-3.60
2022-12-17T19:45:05.364Z,-3.60
2022-12-17T19:47:33.842Z,-3.50
2022-12-17T19:50:02.563Z,-3.40
2022-12-17T19:52:31.136Z,-3.40
2022-12-17T19:54:59.450Z,-3.50
2022-12-17T19:57:27.831Z,-3.30
2022-12-17T19:59:56.263Z,-3.30
2022-12-17T20:02:30.986Z,-3.30
2022-12-17T20:05:01.075Z,-3.40
2022-12-17T20:07:29.432Z,-3.60
2022-12-17T20:09:57.784Z,-3.60
2022-12-17T20:12:26.135Z,-3.40
2022-12-17T20:14:54.606Z,-3.40
2022-12-17T20:17:23.085Z,-3.50
2022-12-17T20:19:53.872Z,-3.50
2022-12-17T20:22:23.542Z,-3.20
2022-12-17T20:24:53.211Z,-3.20
2022-12-17T20:27:21.716Z,-3.20
2022-12-17T20:29:50.081Z,-3.10
2022-12-17T20:32:20.902Z,-3.10
2022-12-17T20:34:49.372Z,-3.00
2022-12-17T20:37:19.072Z,-2.90
2022-12-17T20:39:47.389Z,-2.80
2022-12-17T20:42:17.668Z,-2.90
2022-12-17T20:44:51.563Z,-2.90
2022-12-17T20:47:21.768Z,-3.00
2022-12-17T20:49:50.247Z,-3.10
2022-12-17T20:52:19.999Z,-3.10
2022-12-17T20:54:49.348Z,-3.10
2022-12-17T20:57:17.903Z,-3.00
2022-12-17T20:59:46.393Z,-3.00
2022-12-17T21:02:14.811Z,-3.00
2022-12-17T21:04:43.303Z,-3.10
2022-12-17T21:07:11.565Z,-3.10
2022-12-17T21:09:41.353Z,-3.20
2022-12-17T21:12:12.446Z,-3.20
2022-12-17T21:14:40.813Z,-3.30
2022-12-17T21:17:09.275Z,-3.50
2022-12-17T21:19:37.820Z,-3.70
2022-12-17T21:22:06.777Z,-3.90
2022-12-17T21:24:37.256Z,-4.00
2022-12-17T21:27:12.737Z,-4.10
2022-12-17T21:29:42.909Z,-4.30
2022-12-17T21:32:11.311Z,-4.30
2022-12-17T21:34:39.829Z,-4.40
2022-12-17T21:37:09.584Z,-4.50
2022-12-17T21:39:38.210Z,-4.50
2022-12-17T21:42:25.407Z,-4.50
2022-12-17T21:44:53.779Z,-4.60
2022-12-17T21:47:22.350Z,-4.50
2022-12-17T21:49:50.710Z,-4.50
2022-12-17T21:52:19.056Z,-4.40
2022-12-17T21:54:47.919Z,-4.40
2022-12-17T21:57:17.636Z,-4.50
2022-12-17T21:59:45.951Z,-4.80
2022-12-17T22:02:14.585Z,-4.90
2022-12-17T22:04:43.119Z,-5.00
2022-12-17T22:07:19.022Z,-5.10
2022-12-17T22:10:24.181Z,-5.00
2022-12-17T22:12:57.505Z,-4.90
2022-12-17T22:15:28.425Z,-4.90
2022-12-17T22:18:03.414Z,-4.90
2022-12-17T22:20:31.877Z,-4.90
2022-12-17T22:23:00.173Z,-4.80
2022-12-17T22:25:28.770Z,-4.80
2022-12-17T22:27:58.486Z,-4.70
2022-12-17T22:30:44.100Z,-4.70
2022-12-17T22:33:42.580Z,-4.50
2022-12-17T22:37:19.837Z,-4.80
2022-12-17T22:42:41.377Z,-4.90
2022-12-17T22:44:49.260Z,-4.50
2022-12-17T22:44:53.101Z,-4.80
2022-12-17T22:47:22.866Z,-4.60
2022-12-17T22:49:51.417Z,-4.70
2022-12-17T22:52:20.406Z,-5.00
2022-12-17T22:54:49.131Z,-5.30
2022-12-17T22:57:35.266Z,-5.00
2022-12-17T23:00:12.831Z,-4.60
2022-12-17T23:02:41.262Z,-4.60
2022-12-17T23:05:09.787Z,-4.60
2022-12-17T23:07:38.195Z,-4.60
2022-12-17T23:10:07.227Z,-4.40
2022-12-17T23:12:54.386Z,-4.20
2022-12-17T23:15:27.250Z,-4.10
2022-12-17T23:17:57.504Z,-4.10
2022-12-17T23:20:27.165Z,-4.10
2022-12-17T23:22:55.728Z,-4.10
2022-12-17T23:25:24.494Z,-4.10
2022-12-17T23:27:53.156Z,-4.20
2022-12-17T23:30:21.732Z,-4.30
2022-12-17T23:32:52.791Z,-4.40
2022-12-17T23:35:21.368Z,-4.50
2022-12-17T23:37:50.351Z,-4.70
2022-12-17T23:40:18.988Z,-4.60
2022-12-17T23:42:47.276Z,-4.60
2022-12-17T23:45:15.667Z,-4.60
2022-12-17T23:47:44.008Z,-4.50
2022-12-17T23:50:14.382Z,-4.30
2022-12-17T23:52:42.730Z,-4.20
2022-12-17T23:55:11.702Z,-4.20
2022-12-17T23:57:40.192Z,-4.10
